sensor_id;sensor_type;location;lat;lon;timestamp;P1;durP1;ratioP1;P2;durP2;ratioP2
819;SDS011;392;48.838;2.322;2023-10-31T00:00:26;3.73;;;1.80;;
819;SDS011;392;48.838;2.322;2023-10-31T00:02:53;2.20;;;1.87;;
819;SDS011;392;48.838;2.322;2023-10-31T00:05:22;4.00;;;2.10;;
819;SDS011;392;48.838;2.322;2023-10-31T00:07:49;2.90;;;1.77;;
819;SDS011;392;48.838;2.322;2023-10-31T00:10:17;2.20;;;2.00;;
819;SDS011;392;48.838;2.322;2023-10-31T00:12:44;2.73;;;2.50;;
819;SDS011;392;48.838;2.322;2023-10-31T00:15:11;2.80;;;1.90;;
819;SDS011;392;48.838;2.322;2023-10-31T00:17:38;2.10;;;1.70;;
819;SDS011;392;48.838;2.322;2023-10-31T00:20:06;3.50;;;2.17;;
819;SDS011;392;48.838;2.322;2023-10-31T00:22:35;3.23;;;1.70;;
819;SDS011;392;48.838;2.322;2023-10-31T00:25:02;3.37;;;2.40;;
819;SDS011;392;48.838;2.322;2023-10-31T00:27:31;3.90;;;1.70;;
819;SDS011;392;48.838;2.322;2023-10-31T00:29:58;4.03;;;2.33;;
819;SDS011;392;48.838;2.322;2023-10-31T00:32:25;2.00;;;1.80;;
819;SDS011;392;48.838;2.322;2023-10-31T00:34:53;2.83;;;2.00;;
819;SDS011;392;48.838;2.322;2023-10-31T00:37:20;2.27;;;2.13;;
819;SDS011;392;48.838;2.322;2023-10-31T00:39:49;2.33;;;2.10;;
819;SDS011;392;48.838;2.322;2023-10-31T00:42:16;4.17;;;2.30;;
819;SDS011;392;48.838;2.322;2023-10-31T00:44:43;1.83;;;1.73;;
819;SDS011;392;48.838;2.322;2023-10-31T00:47:11;2.27;;;2.07;;
819;SDS011;392;48.838;2.322;2023-10-31T00:49:38;2.50;;;2.30;;
819;SDS011;392;48.838;2.322;2023-10-31T00:52:05;3.40;;;1.60;;
819;SDS011;392;48.838;2.322;2023-10-31T00:54:33;4.23;;;1.90;;
819;SDS011;392;48.838;2.322;2023-10-31T00:57:01;4.83;;;2.00;;
819;SDS011;392;48.838;2.322;2023-10-31T00:59:29;1.93;;;1.70;;
819;SDS011;392;48.838;2.322;2023-10-31T01:01:56;4.07;;;2.10;;
819;SDS011;392;48.838;2.322;2023-10-31T01:04:23;3.00;;;2.67;;
819;SDS011;392;48.838;2.322;2023-10-31T01:06:51;2.80;;;2.37;;
819;SDS011;392;48.838;2.322;2023-10-31T01:09:18;2.47;;;2.27;;
819;SDS011;392;48.838;2.322;2023-10-31T01:11:45;2.10;;;2.00;;
819;SDS011;392;48.838;2.322;2023-10-31T01:14:14;2.97;;;2.37;;
819;SDS011;392;48.838;2.322;2023-10-31T01:16:41;4.10;;;2.40;;
819;SDS011;392;48.838;2.322;2023-10-31T01:19:08;5.30;;;2.93;;
819;SDS011;392;48.838;2.322;2023-10-31T01:21:35;2.87;;;2.57;;
819;SDS011;392;48.838;2.322;2023-10-31T01:24:03;3.90;;;2.83;;
819;SDS011;392;48.838;2.322;2023-10-31T01:26:31;2.67;;;2.47;;
819;SDS011;392;48.838;2.322;2023-10-31T01:28:58;3.60;;;2.40;;
819;SDS011;392;48.838;2.322;2023-10-31T01:31:27;2.60;;;2.33;;
819;SDS011;392;48.838;2.322;2023-10-31T01:33:54;4.97;;;2.50;;
819;SDS011;392;48.838;2.322;2023-10-31T01:36:23;2.90;;;2.70;;
819;SDS011;392;48.838;2.322;2023-10-31T01:38:51;8.13;;;2.43;;
819;SDS011;392;48.838;2.322;2023-10-31T01:41:19;3.40;;;2.80;;
819;SDS011;392;48.838;2.322;2023-10-31T01:43:46;2.70;;;2.50;;
819;SDS011;392;48.838;2.322;2023-10-31T01:46:13;3.77;;;3.40;;
819;SDS011;392;48.838;2.322;2023-10-31T01:48:42;2.80;;;2.60;;
819;SDS011;392;48.838;2.322;2023-10-31T01:51:09;3.13;;;2.93;;
819;SDS011;392;48.838;2.322;2023-10-31T01:53:37;2.93;;;2.73;;
819;SDS011;392;48.838;2.322;2023-10-31T01:56:06;3.30;;;3.00;;
819;SDS011;392;48.838;2.322;2023-10-31T01:58:34;4.20;;;3.53;;
819;SDS011;392;48.838;2.322;2023-10-31T02:01:04;3.20;;;3.00;;
819;SDS011;392;48.838;2.322;2023-10-31T02:03:32;6.80;;;3.30;;
819;SDS011;392;48.838;2.322;2023-10-31T02:06:01;4.40;;;3.10;;
819;SDS011;392;48.838;2.322;2023-10-31T02:08:28;3.73;;;3.43;;
819;SDS011;392;48.838;2.322;2023-10-31T02:10:55;3.90;;;3.43;;
819;SDS011;392;48.838;2.322;2023-10-31T02:13:23;4.50;;;3.27;;
819;SDS011;392;48.838;2.322;2023-10-31T02:15:50;5.30;;;3.90;;
819;SDS011;392;48.838;2.322;2023-10-31T02:18:18;8.30;;;3.93;;
819;SDS011;392;48.838;2.322;2023-10-31T02:20:45;4.87;;;3.50;;
819;SDS011;392;48.838;2.322;2023-10-31T02:23:16;7.87;;;4.70;;
819;SDS011;392;48.838;2.322;2023-10-31T02:25:43;5.03;;;3.90;;
819;SDS011;392;48.838;2.322;2023-10-31T02:28:10;4.37;;;3.97;;
819;SDS011;392;48.838;2.322;2023-10-31T02:30:38;4.60;;;3.90;;
819;SDS011;392;48.838;2.322;2023-10-31T02:33:06;4.30;;;3.90;;
819;SDS011;392;48.838;2.322;2023-10-31T02:35:33;5.30;;;4.43;;
819;SDS011;392;48.838;2.322;2023-10-31T02:38:00;3.97;;;3.60;;
819;SDS011;392;48.838;2.322;2023-10-31T02:40:29;4.20;;;3.90;;
819;SDS011;392;48.838;2.322;2023-10-31T02:42:56;4.40;;;4.07;;
819;SDS011;392;48.838;2.322;2023-10-31T02:45:24;4.53;;;3.90;;
819;SDS011;392;48.838;2.322;2023-10-31T02:47:51;4.90;;;4.43;;
819;SDS011;392;48.838;2.322;2023-10-31T02:50:18;5.53;;;4.20;;
819;SDS011;392;48.838;2.322;2023-10-31T02:52:47;4.40;;;4.00;;
819;SDS011;392;48.838;2.322;2023-10-31T02:55:14;5.77;;;4.70;;
819;SDS011;392;48.838;2.322;2023-10-31T02:57:42;7.17;;;5.33;;
819;SDS011;392;48.838;2.322;2023-10-31T03:00:10;6.57;;;5.10;;
819;SDS011;392;48.838;2.322;2023-10-31T03:02:39;5.37;;;4.77;;
819;SDS011;392;48.838;2.322;2023-10-31T03:05:06;6.63;;;4.80;;
819;SDS011;392;48.838;2.322;2023-10-31T03:07:33;5.20;;;4.80;;
819;SDS011;392;48.838;2.322;2023-10-31T03:10:01;5.20;;;4.77;;
819;SDS011;392;48.838;2.322;2023-10-31T03:12:28;5.63;;;5.13;;
819;SDS011;392;48.838;2.322;2023-10-31T03:14:57;4.93;;;4.30;;
819;SDS011;392;48.838;2.322;2023-10-31T03:17:24;9.10;;;4.90;;
819;SDS011;392;48.838;2.322;2023-10-31T03:19:53;6.57;;;5.33;;
819;SDS011;392;48.838;2.322;2023-10-31T03:22:20;8.90;;;5.17;;
819;SDS011;392;48.838;2.322;2023-10-31T03:24:48;5.90;;;4.50;;
819;SDS011;392;48.838;2.322;2023-10-31T03:27:15;10.60;;;5.50;;
819;SDS011;392;48.838;2.322;2023-10-31T03:29:43;7.40;;;5.53;;
819;SDS011;392;48.838;2.322;2023-10-31T03:32:11;5.90;;;5.30;;
819;SDS011;392;48.838;2.322;2023-10-31T03:34:39;13.60;;;5.50;;
819;SDS011;392;48.838;2.322;2023-10-31T03:37:06;7.83;;;5.10;;
819;SDS011;392;48.838;2.322;2023-10-31T03:39:35;5.47;;;4.83;;
819;SDS011;392;48.838;2.322;2023-10-31T03:42:02;5.93;;;5.30;;
819;SDS011;392;48.838;2.322;2023-10-31T03:44:30;7.50;;;5.47;;
819;SDS011;392;48.838;2.322;2023-10-31T03:46:57;5.37;;;4.87;;
819;SDS011;392;48.838;2.322;2023-10-31T03:49:26;7.87;;;5.87;;
819;SDS011;392;48.838;2.322;2023-10-31T03:51:53;8.33;;;5.40;;
819;SDS011;392;48.838;2.322;2023-10-31T03:54:21;7.50;;;5.63;;
819;SDS011;392;48.838;2.322;2023-10-31T03:56:48;11.73;;;6.57;;
819;SDS011;392;48.838;2.322;2023-10-31T03:59:16;13.57;;;6.27;;
819;SDS011;392;48.838;2.322;2023-10-31T04:01:43;9.80;;;6.13;;
819;SDS011;392;48.838;2.322;2023-10-31T04:04:11;7.50;;;5.80;;
819;SDS011;392;48.838;2.322;2023-10-31T04:06:39;6.43;;;5.83;;
819;SDS011;392;48.838;2.322;2023-10-31T04:09:07;6.07;;;5.47;;
819;SDS011;392;48.838;2.322;2023-10-31T04:11:35;7.13;;;5.43;;
819;SDS011;392;48.838;2.322;2023-10-31T04:14:03;8.63;;;5.70;;
819;SDS011;392;48.838;2.322;2023-10-31T04:16:31;6.27;;;5.07;;
819;SDS011;392;48.838;2.322;2023-10-31T04:18:58;7.80;;;5.67;;
819;SDS011;392;48.838;2.322;2023-10-31T04:21:25;5.93;;;5.17;;
819;SDS011;392;48.838;2.322;2023-10-31T04:23:54;6.83;;;5.73;;
819;SDS011;392;48.838;2.322;2023-10-31T04:26:21;6.10;;;5.40;;
819;SDS011;392;48.838;2.322;2023-10-31T04:28:48;6.33;;;5.73;;
819;SDS011;392;48.838;2.322;2023-10-31T04:31:15;6.03;;;5.30;;
819;SDS011;392;48.838;2.322;2023-10-31T04:33:43;7.00;;;5.53;;
819;SDS011;392;48.838;2.322;2023-10-31T04:36:10;5.93;;;5.30;;
819;SDS011;392;48.838;2.322;2023-10-31T04:38:37;7.50;;;5.10;;
819;SDS011;392;48.838;2.322;2023-10-31T04:41:07;7.67;;;4.70;;
819;SDS011;392;48.838;2.322;2023-10-31T04:43:34;8.63;;;5.27;;
819;SDS011;392;48.838;2.322;2023-10-31T04:46:02;5.90;;;5.07;;
819;SDS011;392;48.838;2.322;2023-10-31T04:48:29;6.47;;;5.00;;
819;SDS011;392;48.838;2.322;2023-10-31T04:50:57;5.27;;;4.80;;
819;SDS011;392;48.838;2.322;2023-10-31T04:53:25;5.77;;;5.10;;
819;SDS011;392;48.838;2.322;2023-10-31T04:55:52;5.50;;;5.00;;
819;SDS011;392;48.838;2.322;2023-10-31T04:58:20;5.60;;;5.10;;
819;SDS011;392;48.838;2.322;2023-10-31T05:00:47;8.23;;;5.93;;
819;SDS011;392;48.838;2.322;2023-10-31T05:03:15;6.90;;;5.37;;
819;SDS011;392;48.838;2.322;2023-10-31T05:05:43;5.73;;;5.20;;
819;SDS011;392;48.838;2.322;2023-10-31T05:08:10;5.83;;;5.20;;
819;SDS011;392;48.838;2.322;2023-10-31T05:10:37;7.60;;;5.73;;
819;SDS011;392;48.838;2.322;2023-10-31T05:13:04;6.17;;;5.27;;
819;SDS011;392;48.838;2.322;2023-10-31T05:15:33;7.27;;;5.70;;
819;SDS011;392;48.838;2.322;2023-10-31T05:18:00;7.00;;;5.40;;
819;SDS011;392;48.838;2.322;2023-10-31T05:20:28;7.47;;;5.90;;
819;SDS011;392;48.838;2.322;2023-10-31T05:22:55;10.00;;;6.00;;
819;SDS011;392;48.838;2.322;2023-10-31T05:25:22;7.23;;;5.87;;
819;SDS011;392;48.838;2.322;2023-10-31T05:27:49;9.57;;;6.20;;
819;SDS011;392;48.838;2.322;2023-10-31T05:30:17;7.90;;;6.50;;
819;SDS011;392;48.838;2.322;2023-10-31T05:32:46;8.33;;;6.57;;
819;SDS011;392;48.838;2.322;2023-10-31T05:35:13;8.73;;;6.87;;
819;SDS011;392;48.838;2.322;2023-10-31T05:37:40;16.03;;;7.40;;
819;SDS011;392;48.838;2.322;2023-10-31T05:40:08;8.00;;;7.30;;
819;SDS011;392;48.838;2.322;2023-10-31T05:42:37;13.60;;;7.10;;
819;SDS011;392;48.838;2.322;2023-10-31T05:45:05;12.63;;;8.03;;
819;SDS011;392;48.838;2.322;2023-10-31T05:47:32;12.20;;;7.37;;
819;SDS011;392;48.838;2.322;2023-10-31T05:50:01;12.27;;;7.50;;
819;SDS011;392;48.838;2.322;2023-10-31T05:52:29;8.00;;;7.20;;
819;SDS011;392;48.838;2.322;2023-10-31T05:54:57;9.17;;;6.90;;
819;SDS011;392;48.838;2.322;2023-10-31T05:57:24;12.30;;;7.50;;
819;SDS011;392;48.838;2.322;2023-10-31T05:59:52;7.70;;;6.83;;
819;SDS011;392;48.838;2.322;2023-10-31T06:02:19;8.63;;;6.33;;
819;SDS011;392;48.838;2.322;2023-10-31T06:04:46;11.20;;;6.80;;
819;SDS011;392;48.838;2.322;2023-10-31T06:07:14;8.90;;;6.70;;
819;SDS011;392;48.838;2.322;2023-10-31T06:09:42;7.80;;;6.57;;
819;SDS011;392;48.838;2.322;2023-10-31T06:12:09;8.20;;;6.00;;
819;SDS011;392;48.838;2.322;2023-10-31T06:14:36;7.83;;;5.50;;
819;SDS011;392;48.838;2.322;2023-10-31T06:17:04;6.50;;;5.87;;
819;SDS011;392;48.838;2.322;2023-10-31T06:19:33;8.07;;;5.40;;
819;SDS011;392;48.838;2.322;2023-10-31T06:22:01;6.47;;;5.50;;
819;SDS011;392;48.838;2.322;2023-10-31T06:24:29;6.77;;;5.00;;
819;SDS011;392;48.838;2.322;2023-10-31T06:26:56;6.33;;;4.73;;
819;SDS011;392;48.838;2.322;2023-10-31T06:29:24;4.20;;;3.77;;
819;SDS011;392;48.838;2.322;2023-10-31T06:31:51;4.47;;;4.03;;
819;SDS011;392;48.838;2.322;2023-10-31T06:34:18;4.17;;;3.77;;
819;SDS011;392;48.838;2.322;2023-10-31T06:36:45;4.97;;;4.20;;
819;SDS011;392;48.838;2.322;2023-10-31T06:39:12;4.57;;;3.87;;
819;SDS011;392;48.838;2.322;2023-10-31T06:41:41;4.30;;;3.70;;
819;SDS011;392;48.838;2.322;2023-10-31T06:44:08;3.77;;;3.40;;
819;SDS011;392;48.838;2.322;2023-10-31T06:46:36;4.00;;;3.60;;
819;SDS011;392;48.838;2.322;2023-10-31T06:49:03;4.87;;;3.27;;
819;SDS011;392;48.838;2.322;2023-10-31T06:51:30;4.53;;;3.20;;
819;SDS011;392;48.838;2.322;2023-10-31T06:53:57;3.77;;;3.37;;
819;SDS011;392;48.838;2.322;2023-10-31T06:56:25;4.00;;;3.50;;
819;SDS011;392;48.838;2.322;2023-10-31T06:58:55;2.93;;;2.73;;
819;SDS011;392;48.838;2.322;2023-10-31T07:01:22;5.90;;;3.53;;
819;SDS011;392;48.838;2.322;2023-10-31T07:03:50;3.67;;;2.90;;
819;SDS011;392;48.838;2.322;2023-10-31T07:06:17;4.13;;;2.77;;
819;SDS011;392;48.838;2.322;2023-10-31T07:08:44;3.30;;;2.97;;
819;SDS011;392;48.838;2.322;2023-10-31T07:11:11;4.80;;;3.00;;
819;SDS011;392;48.838;2.322;2023-10-31T07:13:39;3.00;;;2.80;;
819;SDS011;392;48.838;2.322;2023-10-31T07:16:08;3.40;;;3.10;;
819;SDS011;392;48.838;2.322;2023-10-31T07:18:35;3.67;;;3.10;;
819;SDS011;392;48.838;2.322;2023-10-31T07:21:03;3.17;;;2.87;;
819;SDS011;392;48.838;2.322;2023-10-31T07:23:31;3.47;;;3.20;;
819;SDS011;392;48.838;2.322;2023-10-31T07:25:58;3.60;;;2.83;;
819;SDS011;392;48.838;2.322;2023-10-31T07:28:25;4.03;;;2.77;;
819;SDS011;392;48.838;2.322;2023-10-31T07:30:52;3.27;;;2.97;;
819;SDS011;392;48.838;2.322;2023-10-31T07:33:21;3.10;;;2.80;;
819;SDS011;392;48.838;2.322;2023-10-31T07:35:48;3.97;;;2.97;;
819;SDS011;392;48.838;2.322;2023-10-31T07:38:15;5.07;;;3.07;;
819;SDS011;392;48.838;2.322;2023-10-31T07:40:43;4.93;;;3.30;;
819;SDS011;392;48.838;2.322;2023-10-31T07:43:10;3.47;;;2.63;;
819;SDS011;392;48.838;2.322;2023-10-31T07:45:38;3.73;;;3.10;;
819;SDS011;392;48.838;2.322;2023-10-31T07:48:05;4.60;;;3.30;;
819;SDS011;392;48.838;2.322;2023-10-31T07:50:33;3.60;;;2.80;;
819;SDS011;392;48.838;2.322;2023-10-31T07:53:01;3.00;;;2.77;;
819;SDS011;392;48.838;2.322;2023-10-31T07:55:28;4.87;;;3.27;;
819;SDS011;392;48.838;2.322;2023-10-31T07:57:55;3.47;;;3.17;;
819;SDS011;392;48.838;2.322;2023-10-31T08:00:23;2.90;;;2.70;;
819;SDS011;392;48.838;2.322;2023-10-31T08:02:50;4.93;;;3.10;;
819;SDS011;392;48.838;2.322;2023-10-31T08:05:17;3.27;;;3.03;;
819;SDS011;392;48.838;2.322;2023-10-31T08:07:46;4.23;;;2.60;;
819;SDS011;392;48.838;2.322;2023-10-31T08:10:13;5.23;;;2.60;;
819;SDS011;392;48.838;2.322;2023-10-31T08:12:40;3.50;;;2.60;;
819;SDS011;392;48.838;2.322;2023-10-31T08:15:08;3.63;;;3.00;;
819;SDS011;392;48.838;2.322;2023-10-31T08:17:36;2.30;;;2.10;;
819;SDS011;392;48.838;2.322;2023-10-31T08:20:03;2.57;;;2.20;;
819;SDS011;392;48.838;2.322;2023-10-31T08:22:32;2.60;;;2.33;;
819;SDS011;392;48.838;2.322;2023-10-31T08:25:00;3.07;;;2.87;;
819;SDS011;392;48.838;2.322;2023-10-31T08:27:28;4.20;;;3.07;;
819;SDS011;392;48.838;2.322;2023-10-31T08:29:55;2.17;;;2.00;;
819;SDS011;392;48.838;2.322;2023-10-31T08:32:22;4.77;;;3.07;;
819;SDS011;392;48.838;2.322;2023-10-31T08:34:50;4.30;;;2.40;;
819;SDS011;392;48.838;2.322;2023-10-31T08:37:17;3.43;;;2.60;;
819;SDS011;392;48.838;2.322;2023-10-31T08:39:44;3.77;;;2.43;;
819;SDS011;392;48.838;2.322;2023-10-31T08:42:13;3.20;;;2.60;;
819;SDS011;392;48.838;2.322;2023-10-31T08:44:40;2.23;;;2.10;;
819;SDS011;392;48.838;2.322;2023-10-31T08:47:07;9.40;;;2.30;;
819;SDS011;392;48.838;2.322;2023-10-31T08:49:34;3.80;;;2.40;;
819;SDS011;392;48.838;2.322;2023-10-31T08:52:02;3.47;;;2.77;;
819;SDS011;392;48.838;2.322;2023-10-31T08:54:29;2.83;;;2.33;;
819;SDS011;392;48.838;2.322;2023-10-31T08:56:57;3.93;;;2.60;;
819;SDS011;392;48.838;2.322;2023-10-31T08:59:25;3.10;;;2.57;;
819;SDS011;392;48.838;2.322;2023-10-31T09:01:52;2.23;;;1.90;;
819;SDS011;392;48.838;2.322;2023-10-31T09:04:20;3.00;;;2.73;;
819;SDS011;392;48.838;2.322;2023-10-31T09:06:47;2.33;;;2.07;;
819;SDS011;392;48.838;2.322;2023-10-31T09:09:14;2.47;;;2.00;;
819;SDS011;392;48.838;2.322;2023-10-31T09:11:42;3.33;;;2.17;;
819;SDS011;392;48.838;2.322;2023-10-31T09:14:09;3.07;;;2.40;;
819;SDS011;392;48.838;2.322;2023-10-31T09:16:37;5.07;;;1.80;;
819;SDS011;392;48.838;2.322;2023-10-31T09:19:05;3.07;;;2.40;;
819;SDS011;392;48.838;2.322;2023-10-31T09:21:32;2.93;;;1.87;;
819;SDS011;392;48.838;2.322;2023-10-31T09:23:59;3.17;;;2.87;;
819;SDS011;392;48.838;2.322;2023-10-31T09:26:28;4.57;;;2.80;;
819;SDS011;392;48.838;2.322;2023-10-31T09:28:55;2.10;;;1.90;;
819;SDS011;392;48.838;2.322;2023-10-31T09:31:22;3.10;;;2.60;;
819;SDS011;392;48.838;2.322;2023-10-31T09:33:51;3.60;;;2.17;;
819;SDS011;392;48.838;2.322;2023-10-31T09:36:19;3.33;;;3.03;;
819;SDS011;392;48.838;2.322;2023-10-31T09:38:46;3.80;;;2.30;;
819;SDS011;392;48.838;2.322;2023-10-31T09:41:13;2.67;;;2.47;;
819;SDS011;392;48.838;2.322;2023-10-31T09:43:40;2.53;;;2.20;;
819;SDS011;392;48.838;2.322;2023-10-31T09:46:08;5.10;;;2.73;;
819;SDS011;392;48.838;2.322;2023-10-31T09:48:36;3.53;;;3.23;;
819;SDS011;392;48.838;2.322;2023-10-31T09:51:06;3.93;;;2.87;;
819;SDS011;392;48.838;2.322;2023-10-31T09:53:33;4.67;;;2.90;;
819;SDS011;392;48.838;2.322;2023-10-31T09:56:05;4.30;;;2.80;;
819;SDS011;392;48.838;2.322;2023-10-31T09:58:34;3.83;;;1.80;;
819;SDS011;392;48.838;2.322;2023-10-31T10:01:02;3.00;;;2.73;;
819;SDS011;392;48.838;2.322;2023-10-31T10:03:30;3.03;;;2.50;;
819;SDS011;392;48.838;2.322;2023-10-31T10:05:57;5.33;;;2.40;;
819;SDS011;392;48.838;2.322;2023-10-31T10:08:26;2.47;;;2.27;;
819;SDS011;392;48.838;2.322;2023-10-31T10:10:53;3.73;;;2.67;;
819;SDS011;392;48.838;2.322;2023-10-31T10:13:21;1.87;;;1.77;;
819;SDS011;392;48.838;2.322;2023-10-31T10:15:49;2.60;;;2.27;;
819;SDS011;392;48.838;2.322;2023-10-31T10:18:25;4.30;;;1.80;;
819;SDS011;392;48.838;2.322;2023-10-31T10:20:56;2.63;;;2.20;;
819;SDS011;392;48.838;2.322;2023-10-31T10:23:26;2.07;;;1.70;;
819;SDS011;392;48.838;2.322;2023-10-31T10:25:55;1.93;;;1.73;;
819;SDS011;392;48.838;2.322;2023-10-31T10:28:24;2.60;;;1.67;;
819;SDS011;392;48.838;2.322;2023-10-31T10:30:54;2.13;;;1.83;;
819;SDS011;392;48.838;2.322;2023-10-31T10:33:24;3.37;;;1.60;;
819;SDS011;392;48.838;2.322;2023-10-31T10:35:51;4.53;;;1.63;;
819;SDS011;392;48.838;2.322;2023-10-31T10:38:21;3.60;;;1.93;;
819;SDS011;392;48.838;2.322;2023-10-31T10:40:57;1.67;;;1.57;;
819;SDS011;392;48.838;2.322;2023-10-31T10:43:28;2.20;;;1.97;;
819;SDS011;392;48.838;2.322;2023-10-31T10:46:04;2.00;;;1.80;;
819;SDS011;392;48.838;2.322;2023-10-31T10:48:34;2.00;;;1.90;;
819;SDS011;392;48.838;2.322;2023-10-31T10:51:06;2.30;;;1.67;;
819;SDS011;392;48.838;2.322;2023-10-31T10:53:44;1.50;;;1.40;;
819;SDS011;392;48.838;2.322;2023-10-31T10:56:18;2.93;;;1.73;;
819;SDS011;392;48.838;2.322;2023-10-31T10:58:55;2.63;;;1.70;;
819;SDS011;392;48.838;2.322;2023-10-31T11:01:31;2.00;;;1.80;;
819;SDS011;392;48.838;2.322;2023-10-31T11:03:58;2.10;;;2.00;;
819;SDS011;392;48.838;2.322;2023-10-31T11:06:28;3.13;;;1.87;;
819;SDS011;392;48.838;2.322;2023-10-31T11:08:57;2.13;;;1.70;;
819;SDS011;392;48.838;2.322;2023-10-31T11:11:26;2.40;;;2.23;;
819;SDS011;392;48.838;2.322;2023-10-31T11:13:54;2.27;;;1.87;;
819;SDS011;392;48.838;2.322;2023-10-31T11:16:26;1.90;;;1.73;;
819;SDS011;392;48.838;2.322;2023-10-31T11:18:59;1.93;;;1.83;;
819;SDS011;392;48.838;2.322;2023-10-31T11:21:27;1.90;;;1.73;;
819;SDS011;392;48.838;2.322;2023-10-31T11:23:56;2.20;;;2.00;;
819;SDS011;392;48.838;2.322;2023-10-31T11:26:26;2.20;;;2.00;;
819;SDS011;392;48.838;2.322;2023-10-31T11:29:02;1.80;;;1.70;;
819;SDS011;392;48.838;2.322;2023-10-31T11:31:31;2.03;;;1.93;;
819;SDS011;392;48.838;2.322;2023-10-31T11:34:00;1.83;;;1.73;;
819;SDS011;392;48.838;2.322;2023-10-31T11:36:29;2.00;;;1.90;;
819;SDS011;392;48.838;2.322;2023-10-31T11:41:53;3.10;;;2.53;;
819;SDS011;392;48.838;2.322;2023-10-31T11:44:22;3.90;;;2.20;;
819;SDS011;392;48.838;2.322;2023-10-31T11:46:52;3.40;;;2.50;;
819;SDS011;392;48.838;2.322;2023-10-31T11:52:14;2.57;;;2.37;;
819;SDS011;392;48.838;2.322;2023-10-31T11:54:42;1.77;;;1.67;;
819;SDS011;392;48.838;2.322;2023-10-31T11:57:11;2.03;;;1.93;;
819;SDS011;392;48.838;2.322;2023-10-31T11:59:53;3.30;;;2.67;;
819;SDS011;392;48.838;2.322;2023-10-31T12:02:21;2.23;;;1.77;;
819;SDS011;392;48.838;2.322;2023-10-31T12:04:48;4.70;;;2.23;;
819;SDS011;392;48.838;2.322;2023-10-31T12:07:15;2.77;;;2.13;;
819;SDS011;392;48.838;2.322;2023-10-31T12:09:45;2.20;;;1.87;;
819;SDS011;392;48.838;2.322;2023-10-31T12:12:14;3.47;;;1.97;;
819;SDS011;392;48.838;2.322;2023-10-31T12:14:42;2.67;;;2.17;;
819;SDS011;392;48.838;2.322;2023-10-31T12:17:09;2.37;;;2.00;;
819;SDS011;392;48.838;2.322;2023-10-31T12:19:36;4.97;;;2.30;;
819;SDS011;392;48.838;2.322;2023-10-31T12:22:11;2.37;;;2.17;;
819;SDS011;392;48.838;2.322;2023-10-31T12:24:39;2.27;;;2.07;;
819;SDS011;392;48.838;2.322;2023-10-31T12:27:07;1.87;;;1.57;;
819;SDS011;392;48.838;2.322;2023-10-31T12:29:36;1.90;;;1.80;;
819;SDS011;392;48.838;2.322;2023-10-31T12:32:03;1.93;;;1.83;;
819;SDS011;392;48.838;2.322;2023-10-31T12:34:32;2.10;;;1.90;;
819;SDS011;392;48.838;2.322;2023-10-31T12:37:00;1.77;;;1.67;;
819;SDS011;392;48.838;2.322;2023-10-31T12:39:28;3.53;;;2.00;;
819;SDS011;392;48.838;2.322;2023-10-31T12:41:56;2.03;;;1.83;;
819;SDS011;392;48.838;2.322;2023-10-31T12:44:25;2.70;;;1.80;;
819;SDS011;392;48.838;2.322;2023-10-31T12:46:55;2.40;;;1.73;;
819;SDS011;392;48.838;2.322;2023-10-31T12:49:22;1.53;;;1.43;;
819;SDS011;392;48.838;2.322;2023-10-31T12:51:57;2.87;;;2.70;;
819;SDS011;392;48.838;2.322;2023-10-31T12:54:29;4.00;;;1.80;;
819;SDS011;392;48.838;2.322;2023-10-31T12:57:00;2.80;;;1.53;;
819;SDS011;392;48.838;2.322;2023-10-31T12:59:29;1.63;;;1.37;;
819;SDS011;392;48.838;2.322;2023-10-31T13:01:59;2.97;;;1.60;;
819;SDS011;392;48.838;2.322;2023-10-31T13:04:29;2.60;;;2.10;;
819;SDS011;392;48.838;2.322;2023-10-31T13:06:58;3.37;;;2.20;;
819;SDS011;392;48.838;2.322;2023-10-31T13:09:30;3.10;;;2.00;;
819;SDS011;392;48.838;2.322;2023-10-31T13:12:03;2.37;;;2.10;;
819;SDS011;392;48.838;2.322;2023-10-31T13:14:32;2.23;;;2.13;;
819;SDS011;392;48.838;2.322;2023-10-31T13:17:01;2.00;;;1.90;;
819;SDS011;392;48.838;2.322;2023-10-31T13:19:28;4.37;;;2.47;;
819;SDS011;392;48.838;2.322;2023-10-31T13:21:56;3.00;;;2.00;;
819;SDS011;392;48.838;2.322;2023-10-31T13:24:23;3.20;;;2.00;;
819;SDS011;392;48.838;2.322;2023-10-31T13:26:50;2.30;;;2.10;;
819;SDS011;392;48.838;2.322;2023-10-31T13:29:18;2.47;;;2.23;;
819;SDS011;392;48.838;2.322;2023-10-31T13:31:45;3.37;;;2.00;;
819;SDS011;392;48.838;2.322;2023-10-31T13:34:14;3.23;;;2.10;;
819;SDS011;392;48.838;2.322;2023-10-31T13:36:41;2.63;;;2.20;;
819;SDS011;392;48.838;2.322;2023-10-31T13:39:09;2.30;;;1.70;;
819;SDS011;392;48.838;2.322;2023-10-31T13:41:36;3.73;;;1.53;;
819;SDS011;392;48.838;2.322;2023-10-31T13:44:04;2.70;;;1.60;;
819;SDS011;392;48.838;2.322;2023-10-31T13:46:30;3.90;;;2.30;;
819;SDS011;392;48.838;2.322;2023-10-31T13:48:58;3.83;;;2.30;;
819;SDS011;392;48.838;2.322;2023-10-31T13:51:27;1.87;;;1.70;;
819;SDS011;392;48.838;2.322;2023-10-31T13:53:54;4.10;;;2.77;;
819;SDS011;392;48.838;2.322;2023-10-31T13:56:22;3.60;;;2.07;;
819;SDS011;392;48.838;2.322;2023-10-31T13:58:49;3.03;;;2.20;;
819;SDS011;392;48.838;2.322;2023-10-31T14:01:16;1.90;;;1.77;;
819;SDS011;392;48.838;2.322;2023-10-31T14:03:50;3.23;;;1.60;;
819;SDS011;392;48.838;2.322;2023-10-31T14:06:17;2.03;;;1.60;;
819;SDS011;392;48.838;2.322;2023-10-31T14:08:46;3.60;;;2.40;;
819;SDS011;392;48.838;2.322;2023-10-31T14:11:13;11.53;;;2.67;;
819;SDS011;392;48.838;2.322;2023-10-31T14:13:40;5.10;;;2.10;;
819;SDS011;392;48.838;2.322;2023-10-31T14:16:10;3.20;;;2.10;;
819;SDS011;392;48.838;2.322;2023-10-31T14:18:38;2.70;;;2.03;;
819;SDS011;392;48.838;2.322;2023-10-31T14:21:06;2.67;;;2.10;;
819;SDS011;392;48.838;2.322;2023-10-31T14:23:33;3.50;;;2.17;;
819;SDS011;392;48.838;2.322;2023-10-31T14:26:02;3.33;;;2.00;;
819;SDS011;392;48.838;2.322;2023-10-31T14:28:31;4.60;;;1.87;;
819;SDS011;392;48.838;2.322;2023-10-31T14:30:58;3.23;;;1.90;;
819;SDS011;392;48.838;2.322;2023-10-31T14:33:28;2.30;;;2.20;;
819;SDS011;392;48.838;2.322;2023-10-31T14:35:56;4.33;;;1.70;;
819;SDS011;392;48.838;2.322;2023-10-31T14:38:23;5.77;;;4.73;;
819;SDS011;392;48.838;2.322;2023-10-31T14:40:50;2.40;;;2.20;;
819;SDS011;392;48.838;2.322;2023-10-31T14:43:19;4.23;;;2.37;;
819;SDS011;392;48.838;2.322;2023-10-31T14:45:46;2.73;;;2.50;;
819;SDS011;392;48.838;2.322;2023-10-31T14:48:14;5.77;;;1.87;;
819;SDS011;392;48.838;2.322;2023-10-31T14:50:42;2.63;;;2.03;;
819;SDS011;392;48.838;2.322;2023-10-31T14:53:10;1.93;;;1.70;;
819;SDS011;392;48.838;2.322;2023-10-31T14:55:37;2.90;;;2.07;;
819;SDS011;392;48.838;2.322;2023-10-31T14:58:04;3.63;;;2.00;;
819;SDS011;392;48.838;2.322;2023-10-31T15:00:35;3.77;;;2.43;;
819;SDS011;392;48.838;2.322;2023-10-31T15:03:03;5.50;;;2.50;;
819;SDS011;392;48.838;2.322;2023-10-31T15:05:30;4.20;;;1.70;;
819;SDS011;392;48.838;2.322;2023-10-31T15:07:59;2.73;;;2.07;;
819;SDS011;392;48.838;2.322;2023-10-31T15:10:26;1.73;;;1.50;;
819;SDS011;392;48.838;2.322;2023-10-31T15:12:54;2.30;;;2.10;;
819;SDS011;392;48.838;2.322;2023-10-31T15:15:21;3.60;;;1.97;;
819;SDS011;392;48.838;2.322;2023-10-31T15:17:53;2.87;;;2.60;;
819;SDS011;392;48.838;2.322;2023-10-31T15:20:20;3.13;;;2.33;;
819;SDS011;392;48.838;2.322;2023-10-31T15:22:48;2.57;;;1.70;;
819;SDS011;392;48.838;2.322;2023-10-31T15:25:16;6.03;;;2.87;;
819;SDS011;392;48.838;2.322;2023-10-31T15:27:43;4.13;;;2.67;;
819;SDS011;392;48.838;2.322;2023-10-31T15:30:11;2.10;;;1.87;;
819;SDS011;392;48.838;2.322;2023-10-31T15:32:39;3.67;;;2.17;;
819;SDS011;392;48.838;2.322;2023-10-31T15:35:08;4.80;;;1.90;;
819;SDS011;392;48.838;2.322;2023-10-31T15:37:35;5.67;;;2.13;;
819;SDS011;392;48.838;2.322;2023-10-31T15:40:03;2.30;;;1.37;;
819;SDS011;392;48.838;2.322;2023-10-31T15:42:33;3.00;;;2.10;;
819;SDS011;392;48.838;2.322;2023-10-31T15:45:01;4.50;;;2.50;;
819;SDS011;392;48.838;2.322;2023-10-31T15:47:28;3.17;;;1.70;;
819;SDS011;392;48.838;2.322;2023-10-31T15:49:57;4.83;;;2.47;;
819;SDS011;392;48.838;2.322;2023-10-31T15:52:26;2.70;;;1.80;;
819;SDS011;392;48.838;2.322;2023-10-31T15:54:53;2.40;;;1.93;;